Oklahoma City, Oklahoma
Current Conditions -  °F | °C
As of 6:52 AM on Friday 24 Oct 2014 (Local Time) from KOKC Reporting Station
Few Clouds Few Clouds  
Wind Chill: 57°   Ceiling: Unl
Heat Index: 57°   Visibility: 9mi
Dew Point: 54°   Wind: 9mph
Humidity: 89%   Direction: 170°S
Pressure: 30.09"   Gusts: NA
Location:  35.47°N, 97.52°W
Report Text: KOKC 241152Z 17008KT 9SM FEW250 14/12 A3009 RMK AO2 SLP180 T01390122 10161 20139 53001
Loading
Personal Weather Stations






























Interactive Weather Map New forecast layout! Learn more

10-Day Weather Forecast

Advertisements
Track Severe Weather on mobile